Time;durP1;ratioP1;P1;durP2;ratioP2;P2;SDS_P1;SDS_P2;PMS_P1;PMS_P2;Temp;Humidity;BMP_temperature;BMP_pressure;BME280_temperature;BME280_humidity;BME280_pressure;Samples;Min_cycle;Max_cycle;Signal;HPM_P1;HPM_P2
2020/12/06 00:02:17;;;;;;;18.00;11.40;;;2.20;88.20;;;;;;5010639;28;20125;-85
2020/12/06 00:04:43;;;;;;;15.27;10.57;;;2.20;88.30;;;;;;5022544;28;20052;-86
2020/12/06 00:07:08;;;;;;;20.10;11.82;;;2.20;88.30;;;;;;5030761;28;20763;-85
2020/12/06 00:09:34;;;;;;;15.32;10.32;;;2.20;88.30;;;;;;4998253;28;20502;-85
2020/12/06 00:12:00;;;;;;;16.02;10.35;;;2.20;88.40;;;;;;5031684;28;20088;-85
2020/12/06 00:14:28;;;;;;;17.08;11.32;;;2.20;88.30;;;;;;5030973;28;20029;-85
2020/12/06 00:16:54;;;;;;;17.90;11.43;;;2.20;88.40;;;;;;5030215;28;20022;-85
2020/12/06 00:19:23;;;;;;;17.63;11.63;;;2.20;88.50;;;;;;5030812;28;20029;-86
2020/12/06 00:22:04;;;;;;;17.58;11.27;;;2.10;88.60;;;;;;5030683;28;20018;-86
2020/12/06 00:24:29;;;;;;;16.40;10.57;;;2.10;88.70;;;;;;5030459;28;20037;-85
2020/12/06 00:27:01;;;;;;;17.20;10.25;;;2.10;88.70;;;;;;5050547;28;20035;-85
2020/12/06 00:29:29;;;;;;;17.70;10.80;;;2.20;88.80;;;;;;5053531;28;20025;-85
2020/12/06 00:31:55;;;;;;;18.75;10.57;;;2.10;88.70;;;;;;5045168;28;20071;-85
2020/12/06 00:34:20;;;;;;;19.58;12.23;;;2.10;88.70;;;;;;5033409;28;20395;-85
2020/12/06 00:36:50;;;;;;;20.35;11.35;;;2.10;88.60;;;;;;5017302;28;20044;-85
2020/12/06 00:39:18;;;;;;;18.98;11.60;;;2.10;88.70;;;;;;5033853;28;20567;-85
2020/12/06 00:41:46;;;;;;;19.83;11.25;;;2.10;88.70;;;;;;5014311;28;20479;-86
2020/12/06 00:44:12;;;;;;;23.13;11.85;;;2.10;88.80;;;;;;5032778;28;20038;-88
2020/12/06 00:46:38;;;;;;;21.80;12.38;;;2.10;88.70;;;;;;5022799;28;20037;-85
2020/12/06 00:49:03;;;;;;;21.45;11.70;;;2.10;88.70;;;;;;5014632;28;20120;-87
2020/12/06 00:51:29;;;;;;;19.17;11.38;;;2.10;88.80;;;;;;5004802;28;20029;-85
2020/12/06 00:53:55;;;;;;;23.33;11.68;;;2.10;88.80;;;;;;5017879;28;20026;-85
2020/12/06 00:56:21;;;;;;;17.85;11.57;;;2.10;88.80;;;;;;5034433;28;20028;-85
2020/12/06 00:58:48;;;;;;;17.48;10.77;;;2.10;88.70;;;;;;5036291;28;20029;-85
2020/12/06 01:01:18;;;;;;;18.88;10.73;;;2.20;88.70;;;;;;5036922;28;20025;-86
2020/12/06 01:03:44;;;;;;;19.88;11.27;;;2.10;88.70;;;;;;5052945;28;20406;-86
2020/12/06 01:06:16;;;;;;;18.73;11.05;;;2.10;88.70;;;;;;5043540;28;20060;-85
2020/12/06 01:08:42;;;;;;;19.52;10.60;;;2.10;88.80;;;;;;5033932;28;20029;-86
2020/12/06 01:11:11;;;;;;;19.92;11.07;;;2.10;88.90;;;;;;5033659;28;20034;-85
2020/12/06 01:13:37;;;;;;;19.17;11.90;;;2.10;88.90;;;;;;5033737;28;20104;-85
2020/12/06 01:16:02;;;;;;;20.45;11.77;;;2.10;88.90;;;;;;5013239;28;20116;-86
2020/12/06 01:18:28;;;;;;;17.65;11.43;;;2.10;88.90;;;;;;5008491;28;20034;-85
2020/12/06 01:20:54;;;;;;;17.75;11.55;;;2.10;89.00;;;;;;4999101;28;20045;-87
2020/12/06 01:23:20;;;;;;;15.85;10.13;;;2.10;89.00;;;;;;5028967;28;20034;-86
2020/12/06 01:25:48;;;;;;;21.70;10.20;;;2.10;89.00;;;;;;5033065;28;20039;-88
2020/12/06 01:28:14;;;;;;;16.17;10.55;;;2.20;89.10;;;;;;5031287;28;20100;-85
2020/12/06 01:30:40;;;;;;;14.68;10.10;;;2.20;89.00;;;;;;5032985;28;20116;-85
2020/12/06 01:33:05;;;;;;;16.70;10.57;;;2.20;89.10;;;;;;5013262;28;20057;-85
2020/12/06 01:35:31;;;;;;;17.42;11.48;;;2.20;89.10;;;;;;5021632;28;20030;-84
2020/12/06 01:37:59;;;;;;;14.35;9.57;;;2.20;89.00;;;;;;5040471;28;20547;-84
2020/12/06 01:40:27;;;;;;;14.75;10.02;;;2.20;89.20;;;;;;5028878;28;20066;-85
2020/12/06 01:42:52;;;;;;;14.52;10.13;;;2.20;89.10;;;;;;5013269;28;20054;-87
2020/12/06 01:45:20;;;;;;;15.52;9.77;;;2.20;89.20;;;;;;5032511;28;20068;-84
2020/12/06 01:47:49;;;;;;;14.77;10.20;;;2.20;89.10;;;;;;5016630;28;20034;-85
2020/12/06 01:50:14;;;;;;;15.25;10.25;;;2.20;89.10;;;;;;5032797;28;20075;-84
2020/12/06 01:52:41;;;;;;;16.15;10.88;;;2.20;89.10;;;;;;5050103;28;20029;-84
2020/12/06 01:55:11;;;;;;;15.70;11.02;;;2.20;89.20;;;;;;5016537;28;20041;-85
2020/12/06 01:57:36;;;;;;;14.65;10.02;;;2.20;89.20;;;;;;5006823;28;20482;-85
2020/12/06 02:00:04;;;;;;;17.15;11.38;;;2.20;89.20;;;;;;5033181;28;20087;-84
2020/12/06 02:02:30;;;;;;;15.57;10.73;;;2.20;89.20;;;;;;5033027;28;20138;-85
2020/12/06 02:04:56;;;;;;;15.57;10.73;;;2.20;89.30;;;;;;5032793;28;20116;-86
2020/12/06 02:07:22;;;;;;;13.70;9.90;;;2.20;89.20;;;;;;5032509;28;20053;-86
2020/12/06 02:09:48;;;;;;;14.35;9.90;;;2.20;89.30;;;;;;5049066;28;20534;-86
2020/12/06 02:12:14;;;;;;;15.13;10.30;;;2.20;89.30;;;;;;5016516;28;20105;-84
2020/12/06 02:14:39;;;;;;;13.90;10.30;;;2.20;89.80;;;;;;5033831;28;20044;-85
2020/12/06 02:17:05;;;;;;;14.60;10.07;;;2.30;89.30;;;;;;5032629;28;20040;-84
2020/12/06 02:19:31;;;;;;;13.32;9.65;;;2.20;89.20;;;;;;5015929;28;20112;-84
2020/12/06 02:21:56;;;;;;;13.88;10.15;;;2.20;89.20;;;;;;4999981;28;20061;-84
2020/12/06 02:24:22;;;;;;;15.50;9.90;;;2.20;89.30;;;;;;4995826;28;20038;-84
2020/12/06 02:26:50;;;;;;;13.85;10.10;;;2.20;89.30;;;;;;4996724;28;20029;-84
2020/12/06 02:29:16;;;;;;;18.00;10.57;;;2.20;89.30;;;;;;5012461;28;20049;-84
2020/12/06 02:31:42;;;;;;;12.50;9.35;;;2.20;89.30;;;;;;5013017;28;20490;-84
2020/12/06 02:34:09;;;;;;;13.30;10.13;;;2.20;89.40;;;;;;5028189;28;20116;-84
2020/12/06 02:36:34;;;;;;;14.75;10.25;;;2.20;89.40;;;;;;5002558;28;20057;-84
2020/12/06 02:39:01;;;;;;;15.80;10.07;;;2.20;89.40;;;;;;5012025;28;20060;-88
2020/12/06 02:41:40;;;;;;;14.88;11.05;;;2.20;89.50;;;;;;5012484;28;20037;-84
2020/12/06 02:44:10;;;;;;;16.45;11.25;;;2.20;89.50;;;;;;5012174;28;20726;-83
2020/12/06 02:46:40;;;;;;;14.57;10.40;;;2.20;89.50;;;;;;5031666;28;20025;-84
2020/12/06 02:49:06;;;;;;;15.45;10.35;;;2.20;89.50;;;;;;5032893;28;20460;-85
2020/12/06 02:51:33;;;;;;;13.80;10.00;;;2.20;89.50;;;;;;5031726;28;20075;-84
2020/12/06 02:53:59;;;;;;;13.25;9.82;;;2.20;89.50;;;;;;5033063;28;20025;-84
2020/12/06 02:56:32;;;;;;;17.13;10.82;;;2.20;89.60;;;;;;5015310;28;20095;-84
2020/12/06 02:58:58;;;;;;;15.80;9.98;;;2.10;89.50;;;;;;5031785;28;20108;-84
2020/12/06 03:01:28;;;;;;;12.15;9.38;;;2.10;89.50;;;;;;5031764;28;20108;-85
2020/12/06 03:03:58;;;;;;;14.25;10.27;;;2.10;89.60;;;;;;5031678;28;20466;-85
2020/12/06 03:06:29;;;;;;;14.63;10.27;;;2.10;89.60;;;;;;5031318;28;20382;-84
2020/12/06 03:08:58;;;;;;;13.70;9.25;;;2.10;89.60;;;;;;5032107;28;20029;-84
2020/12/06 03:11:25;;;;;;;13.13;9.82;;;2.10;89.60;;;;;;5032619;28;20035;-84
2020/12/06 03:13:51;;;;;;;13.98;9.95;;;2.10;89.60;;;;;;5014882;28;20079;-84
2020/12/06 03:16:19;;;;;;;16.25;10.70;;;2.00;89.60;;;;;;5031577;28;20047;-84
2020/12/06 03:18:46;;;;;;;15.43;10.50;;;2.10;89.80;;;;;;5031261;28;20041;-85
2020/12/06 03:21:11;;;;;;;14.70;10.07;;;2.10;89.80;;;;;;5033162;28;20060;-84
2020/12/06 03:23:37;;;;;;;15.27;10.43;;;2.10;89.90;;;;;;5031041;28;20053;-84
2020/12/06 03:26:03;;;;;;;13.35;10.35;;;2.10;89.90;;;;;;5031409;28;20025;-89
2020/12/06 03:28:29;;;;;;;14.07;10.27;;;2.10;89.80;;;;;;5031190;28;20079;-84
2020/12/06 03:30:58;;;;;;;14.25;10.60;;;2.20;89.90;;;;;;5011513;28;20064;-84
2020/12/06 03:33:23;;;;;;;15.88;10.55;;;2.20;89.80;;;;;;5011788;28;20018;-86
2020/12/06 03:35:52;;;;;;;16.05;11.38;;;2.30;89.90;;;;;;5012161;28;20076;-87
2020/12/06 03:38:20;;;;;;;14.63;10.75;;;2.20;89.80;;;;;;5031392;28;20026;-85
2020/12/06 03:40:48;;;;;;;16.48;11.25;;;2.20;89.90;;;;;;5031152;28;20128;-85
2020/12/06 03:43:14;;;;;;;14.57;10.40;;;2.30;89.90;;;;;;5029698;28;20034;-84
2020/12/06 03:45:40;;;;;;;14.63;11.30;;;2.30;89.90;;;;;;5030088;28;20045;-84
2020/12/06 03:48:08;;;;;;;15.55;11.05;;;2.30;89.80;;;;;;5031917;28;20163;-87
2020/12/06 03:50:36;;;;;;;15.55;11.77;;;2.30;89.80;;;;;;5031006;28;20037;-85
2020/12/06 03:53:03;;;;;;;18.02;12.55;;;2.30;89.80;;;;;;5029644;28;20429;-85
2020/12/06 03:55:31;;;;;;;15.48;12.02;;;2.30;89.80;;;;;;5030794;28;20037;-83
2020/12/06 03:57:57;;;;;;;16.30;11.02;;;2.30;89.90;;;;;;5032417;28;20022;-84
2020/12/06 04:00:25;;;;;;;16.15;11.30;;;2.40;89.90;;;;;;5017145;28;20528;-84
2020/12/06 04:02:54;;;;;;;16.10;11.30;;;2.40;89.90;;;;;;5010349;28;20021;-85
2020/12/06 04:05:23;;;;;;;15.18;11.00;;;2.40;89.80;;;;;;5033171;28;20044;-86
2020/12/06 04:07:50;;;;;;;15.43;11.55;;;2.40;89.80;;;;;;5033534;28;20562;-87
2020/12/06 04:10:29;;;;;;;16.33;12.20;;;2.40;89.80;;;;;;5033406;28;20030;-87
2020/12/06 04:13:02;;;;;;;15.43;11.43;;;2.40;89.90;;;;;;5033285;28;20104;-83
2020/12/06 04:15:33;;;;;;;17.00;12.45;;;2.40;89.90;;;;;;5034174;28;20486;-87
2020/12/06 04:18:07;;;;;;;17.23;12.25;;;2.40;89.90;;;;;;5033577;28;20080;-85
2020/12/06 04:20:35;;;;;;;18.05;13.07;;;2.40;89.90;;;;;;5017760;28;20083;-86
2020/12/06 04:23:00;;;;;;;16.90;12.35;;;2.40;90.00;;;;;;5033136;28;20029;-87
2020/12/06 04:25:26;;;;;;;16.92;12.10;;;2.30;90.00;;;;;;5014045;28;20046;-84
2020/12/06 04:28:05;;;;;;;17.52;13.02;;;2.30;90.00;;;;;;5016284;28;20033;-85
2020/12/06 04:30:31;;;;;;;15.68;12.25;;;2.30;90.10;;;;;;5033605;28;20025;-86
2020/12/06 04:32:56;;;;;;;18.50;13.18;;;2.40;90.10;;;;;;5035802;28;20025;-85
2020/12/06 04:35:25;;;;;;;15.88;12.45;;;2.30;90.10;;;;;;5033734;28;20029;-84
2020/12/06 04:37:53;;;;;;;15.00;11.38;;;2.30;90.10;;;;;;5034109;28;20047;-85
2020/12/06 04:40:23;;;;;;;18.13;12.13;;;2.40;90.10;;;;;;5030010;28;20406;-85
2020/12/06 04:42:49;;;;;;;16.83;12.57;;;2.40;90.10;;;;;;5032953;28;20035;-84
2020/12/06 04:45:15;;;;;;;17.63;12.77;;;2.40;90.10;;;;;;5033611;28;20041;-85
2020/12/06 04:47:50;;;;;;;15.70;11.50;;;2.40;90.10;;;;;;5032724;28;20026;-84
2020/12/06 04:50:37;;;;;;;17.30;12.77;;;2.40;90.10;;;;;;5033162;28;20116;-85
2020/12/06 04:53:15;;;;;;;16.98;11.98;;;2.40;90.10;;;;;;5034574;28;20049;-85
2020/12/06 04:55:46;;;;;;;17.92;13.15;;;2.40;90.20;;;;;;5018719;28;20037;-85
2020/12/06 04:58:23;;;;;;;18.00;13.23;;;2.40;90.20;;;;;;5034756;28;20018;-87
2020/12/06 05:00:54;;;;;;;18.00;12.93;;;2.40;90.20;;;;;;5029860;28;20056;-84
2020/12/06 05:03:25;;;;;;;16.38;12.90;;;2.50;90.20;;;;;;5032239;28;20036;-85
2020/12/06 05:05:55;;;;;;;17.40;12.65;;;2.40;90.20;;;;;;5032547;28;20049;-85
2020/12/06 05:08:24;;;;;;;16.70;12.18;;;2.50;90.20;;;;;;5032348;28;20026;-84
2020/12/06 05:10:51;;;;;;;16.77;12.15;;;2.50;90.20;;;;;;5034948;28;20377;-84
2020/12/06 05:13:17;;;;;;;16.90;12.90;;;2.50;90.20;;;;;;5033403;28;20037;-85
2020/12/06 05:15:43;;;;;;;16.30;12.15;;;2.50;90.20;;;;;;5029876;28;20079;-85
2020/12/06 05:18:12;;;;;;;16.20;12.02;;;2.50;90.20;;;;;;5034105;28;20018;-85
2020/12/06 05:20:40;;;;;;;15.80;11.30;;;2.50;90.20;;;;;;5035151;28;20108;-85
2020/12/06 05:23:05;;;;;;;16.98;12.82;;;2.60;90.20;;;;;;5017266;28;20052;-86
2020/12/06 05:25:31;;;;;;;18.42;12.98;;;2.50;90.10;;;;;;5031500;28;20399;-84
2020/12/06 05:27:57;;;;;;;18.90;13.32;;;2.60;90.10;;;;;;5034337;28;20029;-86
2020/12/06 05:30:25;;;;;;;16.52;12.45;;;2.60;90.40;;;;;;5024523;28;20034;-84
2020/12/06 05:32:51;;;;;;;17.33;12.68;;;2.60;90.10;;;;;;5013926;28;20030;-85
2020/12/06 05:35:19;;;;;;;16.52;11.52;;;2.60;90.10;;;;;;5031774;28;20025;-83
2020/12/06 05:37:48;;;;;;;16.75;11.80;;;2.60;90.10;;;;;;5033632;28;20026;-85
2020/12/06 05:40:18;;;;;;;17.42;12.07;;;2.60;90.10;;;;;;5032814;28;20107;-90
2020/12/06 05:42:47;;;;;;;17.38;12.57;;;2.60;90.10;;;;;;5033577;28;20025;-84
2020/12/06 05:45:19;;;;;;;18.98;12.05;;;2.60;90.00;;;;;;5021145;28;20029;-84
2020/12/06 05:47:49;;;;;;;20.10;12.43;;;2.60;90.00;;;;;;5033167;28;20044;-84
2020/12/06 05:50:17;;;;;;;19.23;12.93;;;2.60;90.00;;;;;;5033108;28;20379;-87
2020/12/06 05:52:45;;;;;;;17.45;12.70;;;2.70;90.00;;;;;;5033584;28;20025;-86
2020/12/06 05:55:13;;;;;;;16.33;11.93;;;2.70;90.00;;;;;;5034238;28;20111;-84
2020/12/06 05:57:39;;;;;;;17.50;12.63;;;2.60;90.00;;;;;;5033157;28;20482;-84
2020/12/06 06:00:14;;;;;;;17.45;12.90;;;2.70;90.00;;;;;;5034266;28;20104;-85
2020/12/06 06:02:46;;;;;;;17.45;12.77;;;2.70;90.00;;;;;;5033161;28;20052;-84
2020/12/06 06:05:17;;;;;;;19.00;13.27;;;2.70;90.00;;;;;;5032507;28;20037;-85
2020/12/06 06:07:50;;;;;;;21.92;14.45;;;2.70;89.90;;;;;;5032861;28;20049;-86
2020/12/06 06:10:19;;;;;;;17.60;12.80;;;2.70;89.90;;;;;;5031905;28;20045;-89
2020/12/06 06:12:52;;;;;;;20.33;13.73;;;2.70;89.90;;;;;;5031066;28;20025;-85
2020/12/06 06:15:18;;;;;;;22.38;14.07;;;2.70;89.90;;;;;;5032092;28;20470;-88
2020/12/06 06:17:51;;;;;;;19.20;13.00;;;2.70;90.00;;;;;;5032593;28;20026;-85
2020/12/06 06:20:18;;;;;;;22.15;13.73;;;2.70;90.00;;;;;;5032883;28;20034;-85
2020/12/06 06:22:46;;;;;;;18.83;13.50;;;2.70;90.00;;;;;;5032657;28;20018;-86
2020/12/06 06:25:12;;;;;;;20.63;13.30;;;2.70;90.00;;;;;;5032575;28;20053;-85
2020/12/06 06:27:40;;;;;;;20.85;13.32;;;2.70;89.90;;;;;;5031701;28;20021;-85
2020/12/06 06:30:10;;;;;;;19.48;13.68;;;2.70;89.90;;;;;;5032549;28;20025;-85
2020/12/06 06:32:37;;;;;;;21.42;14.20;;;2.70;89.90;;;;;;5032113;28;20037;-84
2020/12/06 06:35:07;;;;;;;20.58;13.32;;;2.70;89.80;;;;;;5028147;28;20387;-85
2020/12/06 06:37:42;;;;;;;20.17;13.75;;;2.70;89.80;;;;;;5028362;28;20064;-86
2020/12/06 06:40:09;;;;;;;20.42;14.48;;;2.70;89.80;;;;;;5007023;28;20030;-91
2020/12/06 06:42:38;;;;;;;21.88;14.27;;;2.80;89.80;;;;;;5029930;28;20470;-86
2020/12/06 06:45:09;;;;;;;22.10;15.70;;;2.70;89.80;;;;;;5028273;28;20501;-85
2020/12/06 06:47:45;;;;;;;23.60;15.82;;;2.70;89.70;;;;;;5031832;28;20030;-85
2020/12/06 06:50:14;;;;;;;20.88;14.90;;;2.80;89.80;;;;;;5031061;28;20026;-85
2020/12/06 06:52:41;;;;;;;23.13;16.10;;;2.70;89.80;;;;;;5030322;28;20482;-84
2020/12/06 06:55:12;;;;;;;24.52;15.60;;;2.70;89.90;;;;;;5030620;28;20045;-85
2020/12/06 06:57:41;;;;;;;25.23;16.60;;;2.70;89.80;;;;;;5013535;28;20729;-85
2020/12/06 07:00:09;;;;;;;22.85;15.27;;;2.80;89.90;;;;;;5028722;28;20025;-86
2020/12/06 07:02:38;;;;;;;22.60;15.50;;;2.70;89.90;;;;;;5021186;28;20040;-85
2020/12/06 07:05:06;;;;;;;21.52;15.02;;;2.80;90.20;;;;;;5030888;28;20033;-86
2020/12/06 07:07:53;;;;;;;22.20;15.27;;;2.80;90.00;;;;;;5029455;28;20213;-84
2020/12/06 07:10:21;;;;;;;24.42;16.08;;;2.80;90.00;;;;;;5047956;28;20569;-87
2020/12/06 07:12:54;;;;;;;26.50;16.90;;;2.80;90.00;;;;;;5030225;28;20025;-84
2020/12/06 07:15:21;;;;;;;23.45;15.90;;;2.80;90.00;;;;;;5012489;28;20030;-87
2020/12/06 07:17:49;;;;;;;26.58;16.77;;;2.80;90.00;;;;;;5029692;28;20044;-84
2020/12/06 07:20:24;;;;;;;22.13;14.68;;;2.90;90.00;;;;;;5031693;28;20037;-86
2020/12/06 07:22:52;;;;;;;24.27;15.63;;;2.80;90.00;;;;;;5025187;28;20133;-86
2020/12/06 07:25:18;;;;;;;22.15;14.55;;;2.90;90.10;;;;;;5030995;28;20025;-84
2020/12/06 07:27:45;;;;;;;24.40;15.57;;;2.90;90.10;;;;;;5031774;28;20479;-85
2020/12/06 07:30:20;;;;;;;20.23;14.10;;;2.90;90.10;;;;;;5018794;28;20129;-85
2020/12/06 07:32:46;;;;;;;24.30;16.52;;;2.90;90.00;;;;;;5028662;28;20540;-86
2020/12/06 07:35:14;;;;;;;24.83;16.40;;;2.90;90.00;;;;;;5009225;28;20038;-86
2020/12/06 07:37:40;;;;;;;24.42;16.58;;;2.90;90.00;;;;;;5027045;28;20029;-84
2020/12/06 07:40:11;;;;;;;22.88;15.20;;;2.90;90.00;;;;;;5030388;28;20048;-85
2020/12/06 07:42:37;;;;;;;20.63;14.63;;;2.90;90.00;;;;;;5030875;28;20033;-87
2020/12/06 07:45:05;;;;;;;22.52;15.93;;;2.90;90.00;;;;;;5030977;28;20121;-84
2020/12/06 07:47:30;;;;;;;26.10;17.70;;;2.90;90.00;;;;;;5030857;28;20037;-84
2020/12/06 07:49:58;;;;;;;24.02;16.50;;;2.90;90.00;;;;;;5031269;28;20028;-84
2020/12/06 07:52:28;;;;;;;21.85;15.23;;;2.90;90.00;;;;;;5031759;28;20029;-83
2020/12/06 07:54:55;;;;;;;24.65;15.93;;;2.90;90.00;;;;;;5030591;28;20106;-84
2020/12/06 07:57:33;;;;;;;25.00;17.02;;;2.90;90.00;;;;;;5031140;28;20382;-87
2020/12/06 08:00:05;;;;;;;21.92;15.20;;;2.90;90.00;;;;;;5029313;28;20317;-84
2020/12/06 08:02:33;;;;;;;24.20;15.02;;;2.90;90.00;;;;;;5031751;28;20519;-85
2020/12/06 08:05:00;;;;;;;23.02;15.93;;;2.90;90.00;;;;;;5031046;28;20061;-84
2020/12/06 08:08:01;;;;;;;22.63;15.23;;;2.90;90.10;;;;;;5030578;28;20077;-86
2020/12/06 08:10:28;;;;;;;19.25;13.73;;;3.00;90.10;;;;;;4998472;28;20038;-89
2020/12/06 08:12:55;;;;;;;23.35;16.42;;;3.00;90.10;;;;;;5012426;28;20383;-85
2020/12/06 08:15:25;;;;;;;21.35;14.50;;;3.00;90.10;;;;;;5014291;28;20030;-85
2020/12/06 08:17:52;;;;;;;23.52;16.73;;;3.00;90.10;;;;;;5031333;28;20032;-85
2020/12/06 08:20:24;;;;;;;25.33;16.58;;;3.00;90.10;;;;;;5001740;28;20108;-86
2020/12/06 08:30:02;;;;;;;;;;;;;;;;;;;;;
2020/12/06 08:32:40;;;;;;;24.05;16.08;;;3.00;90.10;;;;;;5025632;28;20034;-89
2020/12/06 08:35:18;;;;;;;24.38;16.80;;;3.10;90.10;;;;;;4996010;28;20041;-86
2020/12/06 08:37:48;;;;;;;23.35;16.13;;;3.10;90.10;;;;;;5009760;28;20057;-86
2020/12/06 08:40:25;;;;;;;24.45;17.15;;;3.10;90.10;;;;;;5009026;28;20033;-88
2020/12/06 08:43:24;;;;;;;22.77;15.68;;;3.10;90.10;;;;;;5007520;28;20044;-88
2020/12/06 08:46:10;;;;;;;23.33;15.77;;;3.10;90.10;;;;;;5019323;28;20041;-85
2020/12/06 08:49:05;;;;;;;23.67;16.52;;;3.10;90.10;;;;;;5060217;28;20041;-86
2020/12/06 08:51:56;;;;;;;23.38;15.73;;;3.10;90.40;;;;;;5027203;28;20025;-90
2020/12/06 08:54:47;;;;;;;24.83;16.15;;;3.10;90.10;;;;;;5026622;28;20041;-87
2020/12/06 08:57:29;;;;;;;;;;;;;;;;;;;;;
2020/12/06 09:00:12;;;;;;;25.13;17.25;;;3.20;90.10;;;;;;5030465;28;20025;-87
2020/12/06 09:02:59;;;;;;;;;;;;;;;;;;;;;
2020/12/06 09:06:08;;;;;;;22.48;16.00;;;3.20;90.10;;;;;;5013707;28;20041;-85
2020/12/06 09:14:12;;;;;;;24.35;15.55;;;3.20;90.10;;;;;;5023978;28;20483;-86
2020/12/06 09:17:13;;;;;;;26.90;17.83;;;3.30;90.10;;;;;;5017916;28;20029;-86
2020/12/06 09:20:06;;;;;;;;;;;;;;;;;;;;;
2020/12/06 09:22:50;;;;;;;22.77;16.27;;;3.30;90.10;;;;;;5015192;28;20028;-89
2020/12/06 09:25:45;;;;;;;23.52;16.30;;;3.30;90.10;;;;;;4997029;28;20034;-86
2020/12/06 09:28:21;;;;;;;23.60;16.60;;;3.30;90.10;;;;;;5014226;28;20117;-86
2020/12/06 09:30:59;;;;;;;27.48;18.48;;;3.30;90.10;;;;;;4982991;28;20033;-86
2020/12/06 09:33:45;;;;;;;26.77;16.73;;;3.40;90.20;;;;;;5032603;28;20028;-86
2020/12/06 09:39:25;;;;;;;28.50;18.73;;;3.40;90.20;;;;;;5011228;28;20037;-86
2020/12/06 09:42:08;;;;;;;;;;;;;;;;;;;;;
2020/12/06 09:44:44;;;;;;;25.67;16.88;;;3.50;90.20;;;;;;5014231;28;20033;-91
2020/12/06 09:47:24;;;;;;;24.85;17.17;;;3.60;90.30;;;;;;5013133;28;20048;-86
2020/12/06 09:49:55;;;;;;;27.10;18.52;;;3.60;90.20;;;;;;5029045;28;20029;-87
2020/12/06 09:52:32;;;;;;;25.95;17.95;;;3.60;90.20;;;;;;4999046;28;20100;-87
2020/12/06 09:55:10;;;;;;;;;;;;;;;;;;;;;
2020/12/06 09:57:56;;;;;;;;;;;;;;;;;;;;;
2020/12/06 10:00:56;;;;;;;28.70;18.95;;;3.70;90.20;;;;;;5013066;28;20030;-87
2020/12/06 10:03:34;;;;;;;22.20;16.60;;;3.70;90.10;;;;;;5013788;28;20084;-89
2020/12/06 10:06:24;;;;;;;25.58;17.63;;;3.70;90.20;;;;;;4997452;28;20046;-87
2020/12/06 10:09:17;;;;;;;;;;;;;;;;;;;;;
2020/12/06 10:12:30;;;;;;;28.83;19.65;;;3.80;90.20;;;;;;5029833;28;20467;-87
2020/12/06 10:15:48;;;;;;;28.13;18.35;;;3.80;90.10;;;;;;5018005;28;20522;-88
2020/12/06 10:21:52;;;;;;;;;;;;;;;;;;;;;
2020/12/06 10:24:40;;;;;;;24.30;17.67;;;3.90;90.00;;;;;;5029412;28;20037;-87
2020/12/06 10:27:14;;;;;;;24.73;17.17;;;3.90;90.00;;;;;;5014981;28;20034;-88
2020/12/06 10:30:21;;;;;;;23.67;16.48;;;4.00;90.00;;;;;;5030365;28;20108;-88
2020/12/06 10:33:11;;;;;;;24.98;16.80;;;4.00;90.00;;;;;;5026154;28;20053;-89
2020/12/06 10:36:46;;;;;;;;;;;;;;;;;;;;;
2020/12/06 10:39:14;;;;;;;22.55;15.77;;;4.10;90.00;;;;;;4985407;28;20570;-87
2020/12/06 10:45:28;;;;;;;26.75;18.10;;;4.20;90.00;;;;;;5021651;28;20035;-87
2020/12/06 10:48:06;;;;;;;26.50;18.30;;;4.20;89.90;;;;;;5014873;28;20018;-87
2020/12/06 10:50:53;;;;;;;24.08;17.10;;;4.20;89.80;;;;;;5012609;28;20026;-86
2020/12/06 10:56:35;;;;;;;26.17;17.42;;;4.30;89.70;;;;;;5012213;28;20144;-86
2020/12/06 10:59:12;;;;;;;27.67;19.08;;;4.40;89.60;;;;;;5017857;28;20030;-86
2020/12/06 11:01:50;;;;;;;24.33;16.90;;;4.40;89.40;;;;;;5047776;28;20065;-87
2020/12/06 11:04:47;;;;;;;;;;;;;;;;;;;;;
2020/12/06 11:07:15;;;;;;;25.27;17.48;;;4.50;89.40;;;;;;5043444;28;20495;-88
2020/12/06 11:10:20;;;;;;;;;;;;;;;;;;;;;
2020/12/06 11:12:55;;;;;;;22.85;16.65;;;4.50;89.30;;;;;;5021697;28;20041;-88
2020/12/06 11:15:21;;;;;;;22.85;17.45;;;4.50;89.30;;;;;;5015822;28;20061;-89
2020/12/06 11:17:54;;;;;;;21.42;15.90;;;4.60;89.40;;;;;;5018217;28;20067;-86
2020/12/06 11:20:31;;;;;;;22.13;15.63;;;4.60;89.40;;;;;;5006211;28;20125;-85
2020/12/06 11:23:23;;;;;;;26.65;18.27;;;4.60;89.40;;;;;;5027926;28;20092;-87
2020/12/06 11:29:49;;;;;;;23.08;17.02;;;4.70;89.30;;;;;;4976089;28;20062;-88
2020/12/06 11:35:42;;;;;;;22.42;15.40;;;4.80;89.30;;;;;;4971964;28;20038;-87
2020/12/06 11:38:23;;;;;;;;;;;;;;;;;;;;;
2020/12/06 11:44:25;;;;;;;;;;;;;;;;;;;;;
2020/12/06 11:53:42;;;;;;;;;;;;;;;;;;;;;
2020/12/06 11:56:38;;;;;;;;;;;;;;;;;;;;;
2020/12/06 12:02:43;;;;;;;;;;;;;;;;;;;;;
2020/12/06 12:05:47;;;;;;;;;;;;;;;;;;;;;
2020/12/06 12:08:45;;;;;;;;;;;;;;;;;;;;;
2020/12/06 12:12:01;;;;;;;20.80;15.15;;;5.10;89.20;;;;;;5017186;28;21320;-89
2020/12/06 12:14:52;;;;;;;20.27;14.90;;;5.10;89.10;;;;;;5015145;28;20076;-89
2020/12/06 12:17:29;;;;;;;21.90;16.17;;;5.20;89.20;;;;;;5027605;28;20085;-88
2020/12/06 12:19:57;;;;;;;24.67;16.65;;;5.20;88.90;;;;;;5020518;28;20124;-89
2020/12/06 12:22:39;;;;;;;23.25;16.77;;;5.20;88.70;;;;;;5010681;28;20037;-89
2020/12/06 12:25:41;;;;;;;;;;;;;;;;;;;;;
2020/12/06 12:28:47;;;;;;;22.05;15.60;;;5.20;88.40;;;;;;5032368;28;20088;-89
2020/12/06 12:31:43;;;;;;;20.33;14.57;;;5.20;88.50;;;;;;5022322;28;20037;-85
2020/12/06 12:34:37;;;;;;;21.52;15.68;;;5.30;88.60;;;;;;5027083;28;20284;-86
2020/12/06 12:37:28;;;;;;;26.63;16.95;;;5.30;88.60;;;;;;5026438;28;20040;-88
2020/12/06 12:40:27;;;;;;;24.13;16.63;;;5.20;88.50;;;;;;5024758;28;20513;-88
2020/12/06 12:43:06;;;;;;;;;;;;;;;;;;;;;
2020/12/06 12:45:47;;;;;;;20.30;14.02;;;5.30;88.40;;;;;;5024639;28;20030;-88
2020/12/06 12:48:34;;;;;;;20.25;14.50;;;5.30;88.40;;;;;;5012866;28;20482;-88
2020/12/06 12:51:15;;;;;;;;;;;;;;;;;;;;;
2020/12/06 12:57:39;;;;;;;21.52;15.18;;;5.40;88.40;;;;;;5010802;28;20034;-89
2020/12/06 13:03:33;;;;;;;20.08;15.15;;;5.40;88.60;;;;;;5017207;28;20487;-87
2020/12/06 13:06:09;;;;;;;;;;;;;;;;;;;;;
2020/12/06 13:08:43;;;;;;;21.67;15.18;;;5.40;88.50;;;;;;5028210;28;20492;-87
2020/12/06 13:11:24;;;;;;;20.88;15.25;;;5.40;88.50;;;;;;5034558;28;20459;-88
2020/12/06 13:17:06;;;;;;;;;;;;;;;;;;;;;
2020/12/06 13:19:58;;;;;;;24.30;17.80;;;5.40;88.60;;;;;;5037552;28;20038;-88
2020/12/06 13:22:56;;;;;;;22.40;15.88;;;5.40;88.60;;;;;;5011271;28;20386;-87
2020/12/06 13:25:54;;;;;;;24.88;17.70;;;5.40;88.70;;;;;;5029104;28;20479;-89
2020/12/06 13:28:33;;;;;;;;;;;;;;;;;;;;;
2020/12/06 13:34:35;;;;;;;;;;;;;;;;;;;;;
2020/12/06 13:37:34;;;;;;;;;;;;;;;;;;;;;
2020/12/06 13:40:05;;;;;;;23.17;15.45;;;5.40;88.50;;;;;;4986114;28;20045;-89
2020/12/06 13:43:01;;;;;;;;;;;;;;;;;;;;;
2020/12/06 13:46:01;;;;;;;;;;;;;;;;;;;;;
2020/12/06 13:49:22;;;;;;;;;;;;;;;;;;;;;
2020/12/06 13:52:28;;;;;;;20.05;14.88;;;5.40;88.60;;;;;;4936806;29;20024;-88
2020/12/06 13:58:34;;;;;;;22.83;15.82;;;5.40;88.70;;;;;;5035069;28;20052;-89
2020/12/06 14:10:27;;;;;;;21.75;15.95;;;5.40;89.00;;;;;;5025564;28;20037;-89
2020/12/06 14:13:39;;;;;;;;;;;;;;;;;;;;;
2020/12/06 14:16:07;;;;;;;26.42;18.67;;;5.40;89.40;;;;;;5006125;28;20033;-87
2020/12/06 14:18:55;;;;;;;;;;;;;;;;;;;;;
2020/12/06 14:22:46;;;;;;;24.08;17.23;;;5.40;89.70;;;;;;5027228;28;20463;-88
2020/12/06 14:27:49;;;;;;;;;;;;;;;;;;;;;
2020/12/06 14:30:55;;;;;;;23.17;16.73;;;5.30;90.10;;;;;;5027683;28;20030;-86
2020/12/06 14:33:26;;;;;;;23.67;17.10;;;5.30;90.10;;;;;;5019166;28;20487;-88
2020/12/06 14:36:21;;;;;;;22.02;16.13;;;5.30;90.20;;;;;;5022620;28;20029;-88
2020/12/06 14:39:37;;;;;;;;;;;;;;;;;;;;;
2020/12/06 14:42:10;;;;;;;24.42;16.98;;;5.20;90.30;;;;;;5018880;28;20041;-88
2020/12/06 14:48:37;;;;;;;27.35;18.75;;;5.20;90.50;;;;;;5013784;28;20057;-87
2020/12/06 14:51:11;;;;;;;25.45;17.15;;;5.20;90.60;;;;;;5006196;28;20042;-88
2020/12/06 14:53:59;;;;;;;;;;;;;;;;;;;;;
2020/12/06 14:56:54;;;;;;;25.10;16.77;;;5.10;90.70;;;;;;5030261;28;20030;-87
2020/12/06 14:59:30;;;;;;;20.63;15.30;;;5.10;90.70;;;;;;5030562;28;20034;-88
2020/12/06 15:01:56;;;;;;;25.17;16.48;;;5.20;90.70;;;;;;5026713;28;20435;-85
2020/12/06 15:04:43;;;;;;;24.17;17.13;;;5.20;90.70;;;;;;5019270;28;20063;-87
2020/12/06 15:07:23;;;;;;;;;;;;;;;;;;;;;
2020/12/06 15:10:14;;;;;;;23.23;16.52;;;5.20;90.80;;;;;;5022486;28;20044;-87
2020/12/06 15:12:54;;;;;;;23.92;15.85;;;5.20;90.90;;;;;;5006818;28;20037;-87
2020/12/06 15:15:43;;;;;;;21.88;16.15;;;5.10;90.90;;;;;;5016673;28;20026;-89
2020/12/06 15:21:35;;;;;;;23.13;15.45;;;5.10;90.90;;;;;;5003965;28;20046;-89
2020/12/06 15:24:32;;;;;;;;;;;;;;;;;;;;;
2020/12/06 15:27:29;;;;;;;;;;;;;;;;;;;;;